Time;durP1;ratioP1;P1;durP2;ratioP2;P2;SDS_P1;SDS_P2;PMS_P1;PMS_P2;Temp;Humidity;BMP_temperature;BMP_pressure;BME280_temperature;BME280_humidity;BME280_pressure;Samples;Min_cycle;Max_cycle;Signal;HPM_P1;HPM_P2
2023/01/01 00:02:21;;;;;;;122.97;63.85;;;;;;;9.22;70.07;96645.94;5049545;28;20052;-80
2023/01/01 00:04:49;;;;;;;58.40;32.47;;;;;;;9.17;69.97;96646.03;5034746;28;20056;-77
2023/01/01 00:07:16;;;;;;;51.58;25.58;;;;;;;9.19;69.30;96641.94;5040267;28;20463;-79
2023/01/01 00:12:26;;;;;;;39.65;22.88;;;;;;;9.15;70.01;96647.16;5045288;28;20071;-78
2023/01/01 00:14:53;;;;;;;39.63;21.10;;;;;;;9.20;70.01;96653.59;5043219;28;20042;-78
2023/01/01 00:17:19;;;;;;;32.67;18.95;;;;;;;9.22;70.05;96662.25;5046505;28;20041;-79
2023/01/01 00:19:46;;;;;;;30.73;19.25;;;;;;;9.26;69.59;96657.81;5048999;28;20526;-79
2023/01/01 00:22:13;;;;;;;30.88;18.25;;;;;;;9.31;70.15;96666.69;5041997;28;20409;-78
2023/01/01 00:24:40;;;;;;;28.95;18.23;;;;;;;9.32;70.16;96667.47;5044281;28;20041;-79
2023/01/01 00:27:06;;;;;;;28.23;17.20;;;;;;;9.31;70.26;96666.69;5045140;28;20063;-79
2023/01/01 00:29:33;;;;;;;23.33;14.25;;;;;;;9.33;70.05;96663.66;5037420;28;20050;-78
2023/01/01 00:31:59;;;;;;;23.77;14.48;;;;;;;9.28;69.53;96670.00;5049728;28;20049;-78
2023/01/01 00:34:26;;;;;;;23.10;14.25;;;;;;;9.31;69.08;96672.13;5041610;28;20045;-79
2023/01/01 00:36:53;;;;;;;24.55;15.15;;;;;;;9.27;69.10;96673.81;5042963;28;20076;-77
2023/01/01 00:39:21;;;;;;;31.83;15.98;;;;;;;9.03;70.11;96676.75;5040662;28;20041;-78
2023/01/01 00:41:48;;;;;;;26.27;13.63;;;;;;;9.01;70.05;96686.28;5035974;28;20065;-78
2023/01/01 00:44:14;;;;;;;22.33;13.48;;;;;;;9.00;70.38;96688.19;5052508;28;20041;-78
2023/01/01 00:46:40;;;;;;;27.77;15.60;;;;;;;8.96;70.63;96691.81;5043433;28;20045;-78
2023/01/01 00:49:07;;;;;;;23.13;14.23;;;;;;;8.77;71.54;96700.00;5038331;28;20036;-79
2023/01/01 00:51:33;;;;;;;30.30;15.82;;;;;;;8.56;71.89;96697.66;5052474;28;20048;-78
2023/01/01 00:54:00;;;;;;;37.67;22.27;;;;;;;8.44;73.41;96697.28;5041625;28;20045;-79
2023/01/01 00:56:28;;;;;;;43.90;25.42;;;;;;;8.33;74.56;96698.50;5041049;28;20048;-77
2023/01/01 00:58:54;;;;;;;42.50;24.75;;;;;;;8.34;74.36;96703.63;5036137;28;20048;-78
2023/01/01 01:01:20;;;;;;;43.42;26.90;;;;;;;8.32;74.17;96695.00;5044252;28;20052;-78
2023/01/01 01:03:47;;;;;;;38.63;21.88;;;;;;;8.29;73.71;96705.63;5038142;28;20052;-78
2023/01/01 01:06:16;;;;;;;38.13;22.73;;;;;;;8.38;73.53;96698.47;5047158;28;20521;-79
2023/01/01 01:08:45;;;;;;;36.85;21.83;;;;;;;8.42;73.58;96698.69;5040409;28;20041;-78
2023/01/01 01:11:15;;;;;;;39.30;24.15;;;;;;;8.36;73.74;96703.38;5032344;28;20683;-78
2023/01/01 01:13:45;;;;;;;33.35;20.23;;;;;;;8.45;73.33;96701.59;5043344;28;20125;-77
2023/01/01 01:16:13;;;;;;;29.77;19.50;;;;;;;8.45;73.26;96704.31;5045397;28;20045;-78
2023/01/01 01:18:40;;;;;;;38.80;22.40;;;;;;;8.44;73.49;96708.13;5049107;28;20053;-78
2023/01/01 01:21:06;;;;;;;32.92;20.60;;;;;;;8.46;73.26;96700.53;5037362;28;20045;-78
2023/01/01 01:23:33;;;;;;;35.67;20.30;;;;;;;8.44;73.09;96702.69;5043145;28;20045;-79
2023/01/01 01:26:11;;;;;;;36.78;21.83;;;;;;;8.43;73.13;96706.53;5031908;28;20045;-78
2023/01/01 01:28:38;;;;;;;35.10;21.88;;;;;;;8.58;71.19;96708.19;5049030;28;20049;-78
2023/01/01 01:31:06;;;;;;;35.45;21.25;;;;;;;8.63;69.81;96710.84;5038360;28;20044;-78
2023/01/01 01:33:32;;;;;;;38.38;20.20;;;;;;;8.67;69.05;96711.84;5048872;28;20045;-78
2023/01/01 01:35:59;;;;;;;34.38;20.73;;;;;;;8.82;68.04;96710.75;5039544;28;20045;-78
2023/01/01 01:38:25;;;;;;;32.67;20.17;;;;;;;9.00;66.11;96714.56;5037944;28;20064;-79
2023/01/01 01:40:52;;;;;;;30.33;19.85;;;;;;;9.07;65.89;96710.31;5048156;28;20049;-78
2023/01/01 01:43:23;;;;;;;33.95;19.02;;;;;;;9.11;65.15;96716.78;5046665;28;20044;-79
2023/01/01 01:45:51;;;;;;;30.08;18.70;;;;;;;9.14;64.92;96721.63;5044950;28;20052;-77
2023/01/01 01:48:18;;;;;;;31.95;17.52;;;;;;;9.19;64.03;96725.34;5044200;28;20405;-79
2023/01/01 01:50:48;;;;;;;30.02;17.52;;;;;;;9.19;63.23;96728.03;5042255;28;20045;-79
2023/01/01 01:53:22;;;;;;;25.75;16.73;;;;;;;9.25;62.94;96721.44;5042371;28;20063;-79
2023/01/01 01:55:51;;;;;;;31.48;17.92;;;;;;;9.24;63.94;96726.06;5032028;28;20072;-78
2023/01/01 01:58:18;;;;;;;31.90;19.23;;;;;;;9.17;65.09;96730.28;5037781;28;20053;-80
2023/01/01 02:00:45;;;;;;;32.72;17.98;;;;;;;9.08;65.22;96738.28;5041124;28;20620;-79
2023/01/01 02:03:16;;;;;;;36.88;20.50;;;;;;;8.74;66.22;96754.91;5030825;28;20406;-78
2023/01/01 02:05:46;;;;;;;39.13;23.15;;;;;;;8.55;67.44;96744.88;5031591;28;20045;-79
2023/01/01 02:08:14;;;;;;;43.75;25.67;;;;;;;8.52;67.47;96737.34;5035609;28;20052;-79
2023/01/01 02:10:41;;;;;;;57.83;32.67;;;;;;;8.34;68.87;96755.19;5032048;28;20069;-78
2023/01/01 02:13:07;;;;;;;58.95;35.13;;;;;;;8.23;69.50;96745.59;5030973;28;20052;-79
2023/01/01 02:15:39;;;;;;;69.63;39.97;;;;;;;8.25;69.23;96737.19;5040067;28;20045;-79
2023/01/01 02:18:11;;;;;;;61.08;35.58;;;;;;;8.17;69.69;96735.09;5037381;28;20041;-79
2023/01/01 02:20:46;;;;;;;60.65;37.05;;;;;;;8.07;69.93;96731.44;5032121;28;20408;-79
2023/01/01 02:23:28;;;;;;;70.20;39.60;;;;;;;7.84;70.83;96737.72;5044458;28;20049;-78
2023/01/01 02:26:17;;;;;;;59.03;34.22;;;;;;;7.80;71.79;96742.09;5030936;28;20080;-78
2023/01/01 02:29:00;;;;;;;64.22;37.42;;;;;;;7.71;73.37;96735.72;5040958;28;20045;-78
2023/01/01 02:31:31;;;;;;;60.35;34.28;;;;;;;7.65;73.78;96731.44;5042583;28;20052;-79
2023/01/01 02:34:02;;;;;;;69.85;41.92;;;;;;;7.47;74.34;96725.69;5035126;28;20047;-79
2023/01/01 02:36:31;;;;;;;69.43;40.67;;;;;;;7.39;74.53;96722.81;5050511;28;20048;-79
2023/01/01 02:39:01;;;;;;;65.95;36.20;;;;;;;7.29;75.82;96721.03;5037607;28;20041;-79
2023/01/01 02:41:31;;;;;;;68.25;39.97;;;;;;;7.29;75.97;96723.72;5037916;28;20048;-79
2023/01/01 02:43:59;;;;;;;71.80;39.42;;;;;;;7.13;77.40;96733.09;5043846;28;20665;-79
2023/01/01 02:46:31;;;;;;;73.80;42.85;;;;;;;7.10;77.58;96712.84;5033802;28;20045;-78
2023/01/01 02:48:58;;;;;;;71.78;40.92;;;;;;;7.11;77.12;96710.94;5042959;28;20135;-79
2023/01/01 02:51:33;;;;;;;64.95;39.33;;;;;;;7.13;76.86;96706.84;5033873;28;20053;-79
2023/01/01 02:54:05;;;;;;;64.72;38.20;;;;;;;7.16;76.99;96705.47;5043404;28;20086;-79
2023/01/01 02:56:38;;;;;;;65.68;37.15;;;;;;;7.12;76.90;96704.41;5034010;28;20048;-78
2023/01/01 03:02:13;;;;;;;69.78;42.13;;;;;;;7.03;77.57;96707.75;5034518;28;20064;-79
2023/01/01 03:04:49;;;;;;;68.90;38.55;;;;;;;7.03;77.31;96712.34;5041838;28;20045;-78
2023/01/01 03:07:26;;;;;;;73.10;39.40;;;;;;;6.96;77.70;96712.69;5034681;28;20567;-79
2023/01/01 03:09:59;;;;;;;79.90;45.40;;;;;;;6.83;78.34;96707.94;5048901;28;20602;-79
2023/01/01 03:12:39;;;;;;;74.82;41.92;;;;;;;6.88;78.22;96720.63;5033643;28;20045;-79
2023/01/01 03:15:14;;;;;;;67.05;37.88;;;;;;;6.84;78.36;96725.81;5030361;28;20119;-79
2023/01/01 03:17:49;;;;;;;63.50;36.83;;;;;;;6.89;78.22;96716.81;5032368;28;20034;-79
2023/01/01 03:20:21;;;;;;;68.13;40.53;;;;;;;6.91;78.32;96720.06;5043842;28;20041;-79
2023/01/01 03:22:51;;;;;;;71.03;38.92;;;;;;;6.83;78.98;96724.19;5044569;28;20049;-79
2023/01/01 03:25:22;;;;;;;66.25;36.08;;;;;;;6.78;79.25;96706.06;5038260;28;20041;-78
2023/01/01 03:27:52;;;;;;;56.50;32.58;;;;;;;6.82;78.91;96717.16;5033982;28;20104;-79
2023/01/01 03:30:21;;;;;;;50.20;29.17;;;;;;;6.89;78.47;96712.22;5033509;28;20034;-78
2023/01/01 03:33:00;;;;;;;36.88;23.02;;;;;;;6.97;77.28;96717.00;5033806;28;20053;-79
2023/01/01 03:35:30;;;;;;;32.60;20.30;;;;;;;7.06;76.50;96722.63;5033385;28;20520;-79
2023/01/01 03:38:00;;;;;;;31.38;18.05;;;;;;;7.13;74.84;96722.28;5036942;28;20444;-79
2023/01/01 03:40:29;;;;;;;31.00;17.23;;;;;;;7.15;74.63;96731.75;5053698;28;20049;-78
2023/01/01 03:43:00;;;;;;;25.73;15.13;;;;;;;7.22;74.42;96736.81;5046101;28;20424;-78
2023/01/01 03:45:33;;;;;;;23.52;13.65;;;;;;;7.24;73.82;96751.66;5036966;28;20099;-79
2023/01/01 03:48:00;;;;;;;29.10;17.70;;;;;;;7.22;73.86;96736.81;5034254;28;20408;-79
2023/01/01 03:50:35;;;;;;;27.45;15.70;;;;;;;7.16;73.93;96743.38;5033665;28;20049;-79
2023/01/01 03:53:09;;;;;;;25.17;14.98;;;;;;;7.09;74.16;96737.47;5034543;28;20049;-79
2023/01/01 03:55:42;;;;;;;32.40;18.95;;;;;;;6.97;74.38;96746.78;5033320;28;20045;-79
2023/01/01 03:58:16;;;;;;;31.08;17.67;;;;;;;6.74;75.84;96747.56;5041823;28;20048;-78
2023/01/01 04:00:50;;;;;;;31.17;17.90;;;;;;;6.76;75.43;96761.59;5050529;28;20052;-79
2023/01/01 04:03:22;;;;;;;30.02;17.60;;;;;;;6.49;77.48;96760.19;5040372;28;20052;-79
2023/01/01 04:05:49;;;;;;;28.50;16.13;;;;;;;6.56;77.20;96759.06;5042438;28;20045;-79
2023/01/01 04:08:16;;;;;;;28.93;16.37;;;;;;;6.51;77.20;96768.00;5038559;28;20033;-78
2023/01/01 04:10:46;;;;;;;24.50;15.30;;;;;;;6.42;77.39;96769.69;5042370;28;20044;-78
2023/01/01 04:13:12;;;;;;;25.13;15.02;;;;;;;6.48;77.32;96774.00;5041062;28;20040;-78
2023/01/01 04:15:39;;;;;;;22.92;13.55;;;;;;;6.53;77.23;96780.19;5043218;28;20048;-79
2023/01/01 04:18:07;;;;;;;26.88;15.73;;;;;;;6.42;77.47;96778.63;5039317;28;20042;-78
2023/01/01 04:20:33;;;;;;;24.23;14.77;;;;;;;6.50;77.27;96782.63;5032869;28;20052;-79
2023/01/01 04:23:01;;;;;;;24.90;14.52;;;;;;;6.49;77.25;96778.31;5037762;28;20037;-79
2023/01/01 04:25:29;;;;;;;23.30;12.88;;;;;;;6.56;76.80;96772.56;5036163;28;20405;-79
2023/01/01 04:27:57;;;;;;;22.30;12.50;;;;;;;6.63;76.60;96771.19;5037061;28;20280;-78
2023/01/01 04:30:23;;;;;;;19.02;11.05;;;;;;;6.70;75.89;96768.16;5044811;28;20048;-79
2023/01/01 04:32:50;;;;;;;17.48;10.70;;;;;;;6.77;75.21;96769.44;5044103;28;20041;-79
2023/01/01 04:35:17;;;;;;;17.67;10.25;;;;;;;6.87;74.12;96768.53;5053202;28;20037;-79
2023/01/01 04:37:45;;;;;;;15.90;9.48;;;;;;;6.91;74.14;96774.19;5052869;28;20720;-79
2023/01/01 04:40:12;;;;;;;15.60;9.30;;;;;;;6.89;73.84;96769.09;5052669;28;20109;-78
2023/01/01 04:42:39;;;;;;;16.45;9.45;;;;;;;6.92;74.00;96776.63;5036262;28;20041;-78
2023/01/01 04:45:07;;;;;;;13.82;8.32;;;;;;;7.04;72.14;96768.91;5039264;28;20562;-78
2023/01/01 04:47:33;;;;;;;13.60;8.13;;;;;;;7.09;72.39;96773.47;5048972;28;20512;-78
2023/01/01 04:50:00;;;;;;;13.93;8.05;;;;;;;7.12;72.41;96775.63;5037505;28;20095;-79
2023/01/01 04:52:28;;;;;;;12.98;7.93;;;;;;;7.15;72.25;96775.06;5035958;28;20068;-79
2023/01/01 04:54:54;;;;;;;16.38;8.52;;;;;;;7.14;71.83;96770.72;5040890;28;20544;-79
2023/01/01 04:57:23;;;;;;;12.82;7.97;;;;;;;7.20;71.65;96766.06;5040634;28;20502;-79
2023/01/01 04:59:50;;;;;;;12.95;7.45;;;;;;;7.20;71.43;96774.19;5044169;28;20045;-79
2023/01/01 05:02:17;;;;;;;12.85;7.88;;;;;;;7.20;71.40;96776.91;5045142;28;20041;-79
2023/01/01 05:04:43;;;;;;;13.43;7.95;;;;;;;7.19;71.63;96775.28;5043399;28;20063;-79
2023/01/01 05:07:10;;;;;;;13.70;8.93;;;;;;;7.14;71.68;96775.34;5046317;28;20049;-79
2023/01/01 05:09:38;;;;;;;12.45;7.88;;;;;;;7.15;71.53;96775.06;5039693;28;20045;-78
2023/01/01 05:12:05;;;;;;;15.73;8.75;;;;;;;7.16;71.69;96775.88;5045704;28;20037;-79
2023/01/01 05:14:32;;;;;;;14.75;7.97;;;;;;;7.15;71.78;96779.66;5043725;28;20045;-79
2023/01/01 05:16:59;;;;;;;12.20;8.05;;;;;;;7.11;71.65;96784.06;5041251;28;20052;-79
2023/01/01 05:19:25;;;;;;;14.20;7.45;;;;;;;7.09;71.78;96788.94;5040276;28;20099;-79
2023/01/01 05:21:53;;;;;;;12.77;8.00;;;;;;;7.07;72.12;96783.81;5035507;28;20037;-78
2023/01/01 05:24:19;;;;;;;12.45;6.93;;;;;;;7.14;71.49;96783.47;5052496;28;20132;-78
2023/01/01 05:26:47;;;;;;;12.52;7.43;;;;;;;7.18;71.41;96787.22;5041848;28;20049;-78
2023/01/01 05:29:14;;;;;;;11.60;7.30;;;;;;;7.16;71.52;96784.00;5033664;28;20045;-78
2023/01/01 05:31:40;;;;;;;10.82;6.93;;;;;;;7.18;71.38;96790.75;5051431;28;20041;-79
2023/01/01 05:34:07;;;;;;;11.68;6.63;;;;;;;7.30;70.84;96787.63;5039185;28;20042;-79
2023/01/01 05:36:37;;;;;;;11.82;6.80;;;;;;;7.35;70.29;96787.59;5051699;28;20045;-79
2023/01/01 05:39:04;;;;;;;11.05;6.55;;;;;;;7.30;70.38;96783.03;5047246;28;20048;-78
2023/01/01 05:41:32;;;;;;;11.48;6.47;;;;;;;7.31;70.41;96781.97;5048806;28;20041;-79
2023/01/01 05:44:02;;;;;;;12.70;7.20;;;;;;;7.32;70.22;96785.47;5057889;28;20053;-79
2023/01/01 05:46:28;;;;;;;12.45;7.05;;;;;;;7.33;69.92;96795.22;5049064;28;20042;-79
2023/01/01 05:48:55;;;;;;;12.18;6.75;;;;;;;7.36;70.15;96791.09;5056989;28;20045;-78
2023/01/01 05:51:24;;;;;;;11.02;6.05;;;;;;;7.35;70.29;96790.28;5063230;28;20041;-79
2023/01/01 05:53:51;;;;;;;14.02;7.22;;;;;;;7.36;70.22;96796.53;5048917;28;20040;-79
2023/01/01 05:56:18;;;;;;;13.80;6.70;;;;;;;7.28;70.53;96801.47;5065521;28;20060;-79
2023/01/01 05:58:45;;;;;;;10.15;6.57;;;;;;;7.30;70.29;96806.59;5055184;28;20037;-79
2023/01/01 06:01:16;;;;;;;11.40;6.50;;;;;;;7.30;70.22;96809.31;5044949;28;20049;-79
2023/01/01 06:03:44;;;;;;;11.75;6.60;;;;;;;7.31;69.99;96821.78;5044303;28;20045;-79
2023/01/01 06:06:13;;;;;;;10.27;6.10;;;;;;;7.29;69.84;96821.25;5046357;28;20041;-78
2023/01/01 06:08:40;;;;;;;11.90;6.22;;;;;;;7.33;70.11;96819.59;5040898;28;20048;-79
2023/01/01 06:11:10;;;;;;;11.77;6.10;;;;;;;7.35;69.99;96814.69;5037841;28;20050;-79
2023/01/01 06:13:37;;;;;;;12.80;6.50;;;;;;;7.34;69.94;96823.91;5040482;28;20045;-78
2023/01/01 06:16:04;;;;;;;10.82;6.13;;;;;;;7.32;69.86;96818.78;5037184;28;20048;-79
2023/01/01 06:18:34;;;;;;;10.45;6.35;;;;;;;7.32;69.90;96828.81;5034535;28;20420;-79
2023/01/01 06:21:05;;;;;;;12.95;6.78;;;;;;;7.28;70.06;96828.56;5032126;28;20053;-79
2023/01/01 06:23:31;;;;;;;10.27;6.20;;;;;;;7.30;70.06;96830.97;5048255;28;20079;-78
2023/01/01 06:26:04;;;;;;;9.77;6.28;;;;;;;7.27;70.51;96831.56;5040220;28;20041;-79
2023/01/01 06:28:30;;;;;;;10.88;6.47;;;;;;;7.28;70.19;96835.88;5047987;28;20480;-79
2023/01/01 06:30:59;;;;;;;10.88;6.30;;;;;;;7.29;69.93;96834.78;5047738;28;20076;-79
2023/01/01 06:33:26;;;;;;;10.38;6.25;;;;;;;7.28;69.65;96844.00;5031023;28;20037;-79
2023/01/01 06:35:54;;;;;;;10.63;6.15;;;;;;;7.28;69.50;96850.25;5040143;28;20037;-79
2023/01/01 06:38:20;;;;;;;10.57;6.32;;;;;;;7.25;69.70;96848.09;5045335;28;20041;-79
2023/01/01 06:40:55;;;;;;;11.93;6.65;;;;;;;7.22;70.04;96850.56;5048614;28;20049;-79
2023/01/01 06:43:22;;;;;;;9.38;5.93;;;;;;;7.21;70.14;96854.38;5038798;28;20048;-78
2023/01/01 06:45:48;;;;;;;11.52;6.20;;;;;;;7.21;69.87;96846.25;5040237;28;20072;-79
2023/01/01 06:48:14;;;;;;;9.77;5.93;;;;;;;7.23;70.04;96846.78;5030675;28;20092;-79
2023/01/01 06:50:41;;;;;;;9.98;5.70;;;;;;;7.20;69.82;96848.13;5056408;28;20041;-79
2023/01/01 06:53:09;;;;;;;9.45;6.25;;;;;;;7.24;69.66;96854.59;5058810;28;20051;-79
2023/01/01 06:55:37;;;;;;;10.05;5.60;;;;;;;7.28;69.47;96841.31;5049411;28;20548;-79
2023/01/01 06:58:08;;;;;;;10.27;6.03;;;;;;;7.29;69.14;96851.84;5051564;28;20539;-79
2023/01/01 07:00:34;;;;;;;11.13;6.10;;;;;;;7.25;69.55;96850.78;5041446;28;20508;-79
2023/01/01 07:03:00;;;;;;;10.32;6.38;;;;;;;7.21;69.98;96844.34;5052089;28;20049;-80
2023/01/01 07:05:27;;;;;;;11.70;5.88;;;;;;;7.19;70.02;96851.13;5049844;28;20049;-78
2023/01/01 07:07:53;;;;;;;9.65;5.80;;;;;;;7.14;69.82;96854.69;5045731;28;20052;-79
2023/01/01 07:10:21;;;;;;;11.15;6.38;;;;;;;7.11;69.95;96870.72;5054623;28;20050;-79
2023/01/01 07:12:47;;;;;;;10.48;6.05;;;;;;;7.13;69.70;96882.06;5040787;28;20058;-79
2023/01/01 07:15:14;;;;;;;9.57;5.93;;;;;;;7.10;69.81;96869.91;5049831;28;20029;-79
2023/01/01 07:17:40;;;;;;;10.05;5.75;;;;;;;7.10;69.95;96879.91;5042114;28;20045;-79
2023/01/01 07:20:08;;;;;;;12.15;6.53;;;;;;;7.07;69.92;96887.50;5041098;28;20056;-79
2023/01/01 07:22:35;;;;;;;9.00;5.28;;;;;;;7.10;69.75;96885.31;5049413;28;20515;-78
2023/01/01 07:25:02;;;;;;;9.90;6.00;;;;;;;7.09;69.87;96879.09;5054977;28;20041;-79
2023/01/01 07:27:30;;;;;;;11.45;5.97;;;;;;;7.15;69.58;96877.16;5063251;28;20045;-80
2023/01/01 07:29:56;;;;;;;11.63;5.93;;;;;;;7.14;70.11;96880.97;5043008;28;20068;-78
2023/01/01 07:32:22;;;;;;;10.65;6.15;;;;;;;7.20;69.81;96879.81;5051132;28;20091;-78
2023/01/01 07:34:49;;;;;;;9.25;5.78;;;;;;;7.25;69.50;96887.91;5042040;28;20045;-79
2023/01/01 07:37:15;;;;;;;12.32;6.25;;;;;;;7.28;69.16;96900.91;5043266;28;20041;-78
2023/01/01 07:39:42;;;;;;;10.55;5.65;;;;;;;7.39;68.79;96905.13;5045543;28;20045;-77
2023/01/01 07:42:08;;;;;;;9.68;5.57;;;;;;;7.46;68.76;96908.31;5037916;28;20045;-78
2023/01/01 07:44:36;;;;;;;10.07;5.80;;;;;;;7.45;68.59;96908.63;5039568;28;20053;-79
2023/01/01 07:47:03;;;;;;;8.45;5.55;;;;;;;7.54;68.72;96910.44;5036491;28;20052;-79
2023/01/01 07:49:29;;;;;;;9.55;5.78;;;;;;;7.66;68.16;96920.09;5038447;28;20127;-79
2023/01/01 07:51:56;;;;;;;8.13;5.25;;;;;;;7.68;68.28;96917.91;5050165;28;20415;-79
2023/01/01 07:54:22;;;;;;;9.32;5.85;;;;;;;7.76;67.65;96914.56;5050006;28;20053;-79
2023/01/01 07:56:49;;;;;;;11.60;6.57;;;;;;;7.82;67.52;96913.41;5038990;28;20045;-79
2023/01/01 07:59:15;;;;;;;8.25;5.00;;;;;;;7.90;67.09;96907.38;5030187;28;20421;-78
2023/01/01 08:01:43;;;;;;;10.52;5.70;;;;;;;7.97;66.85;96904.31;5041178;28;20041;-78
2023/01/01 08:04:10;;;;;;;9.85;5.50;;;;;;;8.02;66.56;96910.50;5044907;28;20045;-79
2023/01/01 08:06:37;;;;;;;11.10;5.43;;;;;;;8.18;66.79;96904.91;5050511;28;20044;-79
2023/01/01 08:09:04;;;;;;;8.52;5.15;;;;;;;8.32;66.17;96903.94;5052611;28;20045;-78
2023/01/01 08:11:30;;;;;;;8.07;4.80;;;;;;;8.73;64.94;96916.22;5046170;28;20052;-79
2023/01/01 08:13:57;;;;;;;8.55;5.28;;;;;;;9.50;62.43;96913.97;5046251;28;20041;-80
2023/01/01 08:16:23;;;;;;;10.57;4.88;;;;;;;10.47;59.36;96914.94;5053558;28;20511;-78
2023/01/01 08:18:51;;;;;;;7.65;4.40;;;;;;;11.29;55.66;96911.22;5050401;28;20448;-79
2023/01/01 08:21:17;;;;;;;8.65;4.35;;;;;;;11.84;53.75;96918.38;5033880;28;20428;-79
2023/01/01 08:23:44;;;;;;;6.22;4.22;;;;;;;11.75;53.68;96921.03;5042540;28;20049;-79
2023/01/01 08:26:14;;;;;;;6.70;3.90;;;;;;;11.50;53.77;96925.19;5034727;28;20041;-79
2023/01/01 08:28:42;;;;;;;6.75;3.72;;;;;;;11.19;54.43;96927.81;5036817;28;20049;-79
2023/01/01 08:31:08;;;;;;;8.27;4.05;;;;;;;11.15;54.21;96924.91;5041119;28;20049;-79
2023/01/01 08:33:35;;;;;;;7.93;4.22;;;;;;;10.92;54.51;96926.78;5043157;28;20523;-79
2023/01/01 08:36:03;;;;;;;6.82;3.70;;;;;;;10.77;55.94;96918.13;5039437;28;20041;-79
2023/01/01 08:38:29;;;;;;;6.35;3.90;;;;;;;10.71;55.51;96926.41;5052880;28;20045;-79
2023/01/01 08:40:56;;;;;;;6.78;3.95;;;;;;;10.81;55.64;96916.44;5039094;28;20041;-78
2023/01/01 08:43:22;;;;;;;7.82;3.92;;;;;;;10.91;54.94;96913.44;5038380;28;20076;-78
2023/01/01 08:45:49;;;;;;;7.35;3.72;;;;;;;10.80;55.39;96917.50;5053896;28;20056;-79
2023/01/01 08:48:15;;;;;;;6.32;3.40;;;;;;;10.82;55.61;96915.31;5045392;28;20037;-79
2023/01/01 08:50:42;;;;;;;6.88;3.65;;;;;;;10.90;55.75;96923.53;5053816;28;20049;-79
2023/01/01 08:53:10;;;;;;;6.63;4.00;;;;;;;11.12;54.86;96914.63;5047671;28;20041;-79
2023/01/01 08:55:36;;;;;;;6.30;3.65;;;;;;;11.09;54.64;96920.69;5056848;28;20037;-79
2023/01/01 08:58:05;;;;;;;6.95;3.45;;;;;;;11.07;54.96;96925.66;5053849;28;20045;-79
2023/01/01 09:00:32;;;;;;;6.43;3.50;;;;;;;11.10;55.06;96925.00;5060334;28;20045;-79
2023/01/01 09:02:58;;;;;;;5.88;3.38;;;;;;;11.22;54.86;96928.03;5055211;28;20045;-79
2023/01/01 09:05:30;;;;;;;5.38;3.00;;;;;;;11.32;55.77;96928.88;5047788;28;20048;-79
2023/01/01 09:07:56;;;;;;;6.38;3.50;;;;;;;11.37;55.86;96943.19;5053448;28;20053;-80
2023/01/01 09:10:24;;;;;;;7.55;3.65;;;;;;;11.33;55.52;96946.84;5053277;28;20577;-79
2023/01/01 09:12:50;;;;;;;5.80;3.63;;;;;;;11.26;55.25;96949.22;5052610;28;20037;-80
2023/01/01 09:15:17;;;;;;;8.30;3.72;;;;;;;11.30;55.76;96958.38;5053676;28;20405;-80
2023/01/01 09:17:43;;;;;;;6.72;4.13;;;;;;;11.40;57.89;96963.59;5068305;28;20048;-80
2023/01/01 09:20:10;;;;;;;9.27;4.78;;;;;;;11.37;60.10;96965.00;5062008;28;20046;-79
2023/01/01 09:22:36;;;;;;;8.98;4.82;;;;;;;11.20;60.72;96965.69;5048264;28;20048;-80
2023/01/01 09:25:04;;;;;;;10.45;5.20;;;;;;;11.15;60.98;96967.72;5061351;28;20053;-79
2023/01/01 09:27:31;;;;;;;7.38;5.00;;;;;;;11.08;61.33;96965.41;5040861;28;20045;-79
2023/01/01 09:29:58;;;;;;;11.15;5.82;;;;;;;11.12;62.01;96960.97;5047528;28;20057;-79
2023/01/01 09:32:25;;;;;;;9.90;5.95;;;;;;;11.02;61.31;96958.47;5035841;28;20042;-79
2023/01/01 09:34:51;;;;;;;9.23;5.78;;;;;;;11.03;61.79;96957.34;5049639;28;20049;-79
2023/01/01 09:37:18;;;;;;;7.90;5.25;;;;;;;11.01;61.74;96959.56;5039258;28;20049;-79
2023/01/01 09:39:44;;;;;;;9.05;5.45;;;;;;;11.09;61.83;96958.84;5040614;28;20057;-79
2023/01/01 09:42:26;;;;;;;8.82;5.25;;;;;;;11.27;62.44;96964.44;5040812;28;20050;-79
2023/01/01 09:45:06;;;;;;;8.77;5.55;;;;;;;11.41;62.62;96959.75;5034504;28;20053;-79
2023/01/01 09:47:38;;;;;;;11.05;5.72;;;;;;;11.60;61.51;96957.69;5050576;28;20045;-78
2023/01/01 09:50:11;;;;;;;10.40;5.47;;;;;;;11.93;60.09;96960.16;5036968;28;20079;-79
2023/01/01 09:52:41;;;;;;;;;;;;;;;12.30;59.96;96961.66;5043743;28;20049;-79
2023/01/01 09:55:15;;;;;;;8.55;4.88;;;;;;;12.72;59.21;96971.13;5039939;28;19963;-78
2023/01/01 09:57:42;;;;;;;9.38;5.10;;;;;;;13.12;59.41;96960.16;5048191;28;20037;-79
2023/01/01 10:00:16;;;;;;;7.50;4.70;;;;;;;13.20;56.40;96959.34;5031348;28;20061;-79
2023/01/01 10:02:53;;;;;;;8.00;4.00;;;;;;;13.37;56.20;96957.81;5032612;28;20125;-78
2023/01/01 10:05:30;;;;;;;4.93;2.97;;;;;;;13.63;54.49;96952.34;5031749;28;20045;-78
2023/01/01 10:08:05;;;;;;;4.90;2.88;;;;;;;14.11;53.20;96949.34;5035084;28;20045;-80
2023/01/01 10:10:38;;;;;;;4.45;3.00;;;;;;;14.50;52.02;96939.25;5035705;28;20041;-80
2023/01/01 10:13:17;;;;;;;4.03;2.50;;;;;;;14.82;50.65;96930.38;5032107;28;20041;-79
2023/01/01 10:15:52;;;;;;;5.43;3.00;;;;;;;15.10;49.78;96929.91;5049270;28;20040;-79
2023/01/01 10:18:23;;;;;;;5.55;3.20;;;;;;;15.21;48.97;96920.16;5033066;28;20080;-79
2023/01/01 10:20:58;;;;;;;4.55;3.10;;;;;;;15.37;49.70;96921.16;5041446;28;20409;-79
2023/01/01 10:23:28;;;;;;;4.80;2.67;;;;;;;15.62;50.14;96924.03;5050295;28;20047;-80
2023/01/01 10:25:57;;;;;;;4.07;2.38;;;;;;;15.88;47.84;96923.81;5042223;28;20091;-80
2023/01/01 10:28:30;;;;;;;5.43;2.65;;;;;;;15.93;47.58;96922.78;5032650;28;20041;-79
2023/01/01 10:31:10;;;;;;;4.30;2.35;;;;;;;16.12;47.91;96914.81;5037396;28;20064;-79
2023/01/01 10:33:37;;;;;;;3.40;2.03;;;;;;;16.28;47.81;96910.25;5036513;28;20041;-79
2023/01/01 10:36:04;;;;;;;3.20;1.52;;;;;;;16.20;46.60;96904.88;5046824;28;20106;-80
2023/01/01 10:38:30;;;;;;;4.72;2.00;;;;;;;16.55;46.06;96916.25;5044387;28;20049;-79
2023/01/01 10:41:03;;;;;;;2.38;1.58;;;;;;;16.40;45.34;96921.28;5034661;28;20045;-80
2023/01/01 10:43:30;;;;;;;2.00;1.40;;;;;;;16.23;46.79;96905.00;5051375;28;20455;-79
2023/01/01 10:46:01;;;;;;;3.95;1.80;;;;;;;16.15;46.90;96908.66;5042379;28;20362;-80
2023/01/01 10:48:30;;;;;;;2.72;1.52;;;;;;;16.00;47.68;96907.34;5040783;28;20072;-79
2023/01/01 10:50:58;;;;;;;3.25;1.45;;;;;;;15.84;47.92;96898.97;5040433;28;20068;-80
2023/01/01 10:53:28;;;;;;;2.50;1.60;;;;;;;15.79;48.01;96895.63;5047997;28;20045;-79
2023/01/01 10:56:13;;;;;;;6.07;1.70;;;;;;;15.85;48.62;96900.56;5036022;28;20048;-79
2023/01/01 10:58:43;;;;;;;4.30;1.70;;;;;;;15.85;49.03;96903.31;5050084;28;20041;-78
2023/01/01 11:01:18;;;;;;;3.55;1.65;;;;;;;16.03;48.45;96898.44;5040079;28;20440;-79
2023/01/01 11:04:17;;;;;;;2.97;1.50;;;;;;;16.27;49.11;96894.13;5050030;28;20439;-78
2023/01/01 11:06:45;;;;;;;2.28;1.50;;;;;;;16.28;48.07;96895.72;5043374;28;20037;-79
2023/01/01 11:09:21;;;;;;;3.75;1.42;;;;;;;16.36;48.81;96895.63;5050127;28;20500;-79
2023/01/01 11:11:56;;;;;;;4.03;1.65;;;;;;;16.25;48.89;96897.22;5040122;28;20102;-80
2023/01/01 11:14:29;;;;;;;3.00;1.55;;;;;;;16.37;48.67;96894.47;5031726;28;20057;-79
2023/01/01 11:16:58;;;;;;;2.65;1.55;;;;;;;16.20;48.43;96889.19;5040456;28;20520;-81
2023/01/01 11:19:28;;;;;;;3.80;1.65;;;;;;;16.18;49.15;96892.31;5046676;28;20048;-79
2023/01/01 11:21:55;;;;;;;2.90;1.73;;;;;;;16.13;49.07;96889.78;5042876;28;20041;-79
2023/01/01 11:24:23;;;;;;;5.22;2.10;;;;;;;16.24;48.93;96876.38;5042984;28;21095;-79
2023/01/01 11:26:51;;;;;;;4.85;1.92;;;;;;;16.19;48.57;96871.13;5042425;28;20045;-79
2023/01/01 11:29:23;;;;;;;4.07;1.65;;;;;;;16.46;48.40;96868.84;5042489;28;20515;-78
2023/01/01 11:31:51;;;;;;;2.95;1.65;;;;;;;16.46;48.68;96874.34;5031766;28;20038;-79
2023/01/01 11:34:28;;;;;;;3.53;1.80;;;;;;;16.39;48.69;96864.72;5029470;28;20644;-79
2023/01/01 11:37:08;;;;;;;3.67;1.70;;;;;;;16.40;49.02;96866.31;5042783;28;20048;-79
2023/01/01 11:39:36;;;;;;;3.05;1.80;;;;;;;16.33;48.14;96865.28;5041588;28;20481;-79
2023/01/01 11:42:05;;;;;;;3.42;1.60;;;;;;;16.40;48.63;96866.31;5051676;28;20511;-79
2023/01/01 11:44:35;;;;;;;4.53;2.30;;;;;;;16.39;48.83;96864.72;5047740;28;20045;-79
2023/01/01 11:47:04;;;;;;;2.83;1.73;;;;;;;16.34;49.23;96862.19;5054593;28;20045;-79